X  Sluiten METAR luchtvaart weer gegevens      EHAM Amsterdam Airport Schiphol
Temperatuur
8°C Temperatuur
6°C Dauwpunt
87% Vochtigheid



Wind
29 KM/U
18 MPH
8 M/S
16 KTS



250°
WZW
Huidig weer

Wat bewolking Wat bewolking
Luchtdruk 1020.92 (hPa) - 30.15 (inHg)
Zicht 6.2 (mijl) - 10 (km)
Vliegveld
Vliegveld code EHAM

Locatie : Amsterdam Airport Schiphol
Afstand: 25 (km)

Metar:
EHAM 270825Z 25016KT 9999 FEW006 BKN008 BKN016 08/06 Q1021 BECMG BKN012

Tijd: 27-01-2022 09:25 CET